General Aviation Weather

Text Reports

Enter one or more of the following location identifiers separated by a space:

Zip Code, Four-Character ICAO or Three-Character IATA airport codes.

METAR - Aviation Routine Weather Report
K1M4 - Haleyville, Alabama
Updated at 4:56 PM GMT on July 29, 2014 (11:56 AM CDT):
METAR K1M4 291656Z AUTO 34012G16KT 10SM SCT039 BKN047 23/14 A3014 RMK AO2 T02270138 BKN V SCT SLP216
TAF - Terminal Area Forecast
K1M4 - Haleyville, Alabama
Updated at 4:56 PM GMT on July 29, 2014 (11:56 AM CDT):
No TAF is currently available for this location.
Decoded:
No decoded TAF is available.
PIREP - Pilot Weather Report
K1M4 - Haleyville, Alabama
Updated at 4:56 PM GMT on July 29, 2014 (11:56 AM CDT):
No PIREP is currently available for this location.
AIRMET - Airmens Meteorological Information
K1M4 - Haleyville, Alabama
Updated at 4:56 PM GMT on July 29, 2014 (11:56 AM CDT):
No AIRMET is currently available for this location.
SIGMET - Significant Meteorological Information
K1M4 - Haleyville, Alabama
Updated at 4:56 PM GMT on July 29, 2014 (11:56 AM CDT):
No SIGMET is currently available for this location.
NOTAM - Notice to Airmen
K1M4 - Haleyville, Alabama
Updated at 4:56 PM GMT on July 29, 2014 (11:56 AM CDT):
No NOTAM is currently available for this location.
Forecast Area
K1M4 - Haleyville, Alabama
Updated at 4:56 PM GMT on July 29, 2014 (11:56 AM CDT):
No NOTAM is currently available for this location.
Aviation Weather Maps